Time;durP1;ratioP1;P1;durP2;ratioP2;P2;SDS_P1;SDS_P2;PMS_P1;PMS_P2;Temp;Humidity;BMP_temperature;BMP_pressure;BME280_temperature;BME280_humidity;BME280_pressure;Samples;Min_cycle;Max_cycle;Signal;HPM_P1;HPM_P2
2022/04/06 00:01:30;;;;;;;15.20;14.40;;;11.00;99.90;;;;;;5013956;28;20452;-72
2022/04/06 00:03:56;;;;;;;15.10;14.23;;;11.00;99.90;;;;;;5014039;28;20450;-73
2022/04/06 00:06:23;;;;;;;14.90;14.00;;;11.00;99.90;;;;;;5013790;28;21003;-70
2022/04/06 00:08:50;;;;;;;15.60;14.60;;;11.00;99.90;;;;;;5013638;28;21002;-72
2022/04/06 00:11:16;;;;;;;15.40;14.40;;;11.00;99.90;;;;;;5013794;28;20446;-71
2022/04/06 00:13:43;;;;;;;15.87;14.77;;;10.90;99.90;;;;;;5013693;28;20489;-71
2022/04/06 00:16:11;;;;;;;13.97;13.20;;;11.00;99.90;;;;;;5013678;28;20452;-71
2022/04/06 00:18:38;;;;;;;14.80;13.90;;;11.00;99.90;;;;;;5013659;28;20478;-71
2022/04/06 00:21:04;;;;;;;16.50;15.50;;;11.00;99.90;;;;;;5013358;28;20477;-73
2022/04/06 00:23:31;;;;;;;14.53;13.73;;;11.00;99.90;;;;;;5013406;28;20458;-72
2022/04/06 00:25:58;;;;;;;14.50;13.70;;;10.90;99.90;;;;;;5013494;28;20456;-73
2022/04/06 00:28:24;;;;;;;14.67;13.90;;;10.90;99.90;;;;;;5013198;28;20943;-72
2022/04/06 00:30:51;;;;;;;14.50;13.70;;;11.00;99.90;;;;;;5013264;28;20445;-73
2022/04/06 00:33:19;;;;;;;14.80;13.80;;;11.00;99.90;;;;;;5013177;28;20500;-73
2022/04/06 00:35:46;;;;;;;15.13;14.23;;;11.10;99.90;;;;;;5013017;28;20485;-70
2022/04/06 07:58:14;;;;;;;10.20;9.70;;;14.40;99.90;;;;;;5458218;23;20484;-73
2022/04/06 08:00:41;;;;;;;10.20;9.80;;;14.50;99.90;;;;;;5047128;28;20472;-72
2022/04/06 08:03:07;;;;;;;11.03;10.50;;;14.80;99.90;;;;;;5042104;28;20982;-72
2022/04/06 08:05:35;;;;;;;10.83;10.23;;;15.00;99.90;;;;;;5041564;28;20455;-72
2022/04/06 08:08:02;;;;;;;10.30;9.90;;;15.30;99.90;;;;;;5045368;28;20487;-73
2022/04/06 08:10:30;;;;;;;10.53;10.03;;;15.40;99.90;;;;;;5032704;28;20457;-73
2022/04/06 08:12:56;;;;;;;10.17;9.77;;;15.80;99.90;;;;;;5033044;28;20961;-74
2022/04/06 08:15:25;;;;;;;9.90;9.50;;;15.80;99.90;;;;;;5051889;28;20487;-72
2022/04/06 08:17:52;;;;;;;10.17;9.47;;;15.70;99.90;;;;;;5052794;28;20475;-73
2022/04/06 08:20:20;;;;;;;9.83;9.37;;;15.60;99.90;;;;;;5052688;28;20452;-73
2022/04/06 08:22:49;;;;;;;9.20;8.80;;;15.40;99.90;;;;;;5052633;28;20503;-73
2022/04/06 08:25:17;;;;;;;11.13;10.53;;;15.30;99.90;;;;;;5052478;28;20534;-73
2022/04/06 08:27:44;;;;;;;11.20;10.70;;;15.30;99.90;;;;;;5052667;28;20456;-73
2022/04/06 08:30:13;;;;;;;9.90;9.40;;;15.50;99.90;;;;;;5052613;28;20452;-74
2022/04/06 08:32:41;;;;;;;9.87;9.57;;;15.60;99.90;;;;;;5052696;28;20539;-74
2022/04/06 08:35:09;;;;;;;10.00;9.60;;;15.60;99.90;;;;;;5052330;28;20533;-74
2022/04/06 08:37:37;;;;;;;9.30;9.00;;;15.30;99.90;;;;;;5052408;28;20456;-74
2022/04/06 08:40:07;;;;;;;9.70;9.30;;;15.10;99.90;;;;;;5052994;28;20540;-73
2022/04/06 08:42:35;;;;;;;9.63;9.23;;;15.20;99.90;;;;;;5052706;28;20531;-73
2022/04/06 08:45:02;;;;;;;9.90;9.30;;;15.10;99.90;;;;;;5051590;28;20456;-74
2022/04/06 08:47:31;;;;;;;9.83;9.47;;;15.20;99.90;;;;;;5052535;28;20968;-75
2022/04/06 08:49:59;;;;;;;10.20;9.70;;;15.30;99.90;;;;;;5052944;28;20531;-75
2022/04/06 08:52:26;;;;;;;9.47;9.17;;;15.30;99.90;;;;;;5052775;28;20456;-74
2022/04/06 08:54:53;;;;;;;10.10;9.70;;;15.70;99.90;;;;;;5053010;28;20533;-73
2022/04/06 08:57:20;;;;;;;9.90;9.50;;;15.60;99.90;;;;;;5052322;28;20579;-74
2022/04/06 08:59:48;;;;;;;11.13;10.43;;;15.70;99.90;;;;;;5052156;28;20460;-73
2022/04/06 09:02:18;;;;;;;10.13;9.53;;;16.00;99.90;;;;;;5052202;28;20559;-73
2022/04/06 09:04:45;;;;;;;10.77;10.20;;;16.50;99.90;;;;;;5051869;28;20820;-75
2022/04/06 09:07:13;;;;;;;10.80;10.20;;;16.70;99.90;;;;;;5051049;28;20448;-73
2022/04/06 09:09:39;;;;;;;9.90;9.40;;;16.40;99.90;;;;;;5041342;28;20518;-74
2022/04/06 09:12:08;;;;;;;10.27;9.87;;;16.80;99.90;;;;;;5051955;28;20965;-75
2022/04/06 09:14:35;;;;;;;10.40;10.00;;;18.10;98.90;;;;;;5051869;28;20997;-75
2022/04/06 09:17:03;;;;;;;10.50;10.20;;;19.00;96.30;;;;;;5052047;28;20452;-74
2022/04/06 09:19:30;;;;;;;10.27;9.87;;;19.80;93.00;;;;;;5051653;28;20490;-75
2022/04/06 09:21:57;;;;;;;10.60;10.10;;;20.30;91.90;;;;;;5052246;28;20456;-75
2022/04/06 09:24:26;;;;;;;10.50;10.10;;;19.70;90.90;;;;;;5051961;28;20451;-75
2022/04/06 09:26:57;;;;;;;10.07;9.67;;;20.10;92.50;;;;;;5052202;28;20475;-76
2022/04/06 09:29:24;;;;;;;10.70;10.20;;;20.90;87.50;;;;;;5051986;28;20539;-74
2022/04/06 09:31:51;;;;;;;10.40;10.00;;;20.00;87.60;;;;;;5043263;28;20452;-76
2022/04/06 09:34:21;;;;;;;9.40;9.10;;;18.80;91.10;;;;;;5031849;28;20452;-74
2022/04/06 09:36:47;;;;;;;9.60;9.30;;;18.50;91.40;;;;;;5031740;28;20453;-75
2022/04/06 09:39:14;;;;;;;10.30;9.90;;;18.60;91.00;;;;;;5031964;28;20507;-74
2022/04/06 09:42:00;;;;;;;9.90;9.40;;;19.00;90.60;;;;;;5031929;28;20942;-76
2022/04/06 09:50:11;;;;;;;9.50;9.20;;;18.80;90.30;;;;;;5031766;28;20601;-75
2022/04/06 09:52:38;;;;;;;9.67;9.37;;;18.70;89.70;;;;;;5031821;28;20453;-75
2022/04/06 09:55:08;;;;;;;9.37;9.07;;;18.40;91.00;;;;;;5031467;28;20515;-75
2022/04/06 09:57:41;;;;;;;9.60;9.30;;;18.40;90.60;;;;;;5030893;28;20834;-75
2022/04/06 10:00:09;;;;;;;10.20;9.70;;;18.50;91.40;;;;;;5050054;28;20540;-74
2022/04/06 10:02:37;;;;;;;10.17;9.67;;;18.80;90.50;;;;;;5051322;28;20821;-74
2022/04/06 10:05:04;;;;;;;10.10;9.73;;;18.60;90.10;;;;;;5051396;28;20713;-74
2022/04/06 10:07:32;;;;;;;9.87;9.57;;;18.60;90.30;;;;;;5051427;28;20456;-75
2022/04/06 10:10:01;;;;;;;9.80;9.50;;;18.50;90.50;;;;;;5051130;28;20510;-74
2022/04/06 10:12:28;;;;;;;9.40;9.00;;;18.40;89.90;;;;;;5050863;28;20455;-75
2022/04/06 10:14:57;;;;;;;9.37;9.00;;;17.90;90.70;;;;;;5051268;28;20483;-74
2022/04/06 10:17:25;;;;;;;9.20;8.90;;;18.00;90.50;;;;;;5051369;28;20448;-74
2022/04/06 10:19:57;;;;;;;9.07;8.77;;;18.00;91.10;;;;;;5051188;28;20561;-74
2022/04/06 10:22:31;;;;;;;9.80;9.40;;;18.20;90.90;;;;;;5051085;28;20459;-74
2022/04/06 10:25:08;;;;;;;9.60;9.20;;;18.80;90.50;;;;;;5051112;28;20452;-75
2022/04/06 10:27:39;;;;;;;9.80;9.50;;;19.60;89.50;;;;;;5050988;28;20459;-75
2022/04/06 10:30:12;;;;;;;10.20;9.70;;;20.60;84.70;;;;;;5050728;28;20539;-75
2022/04/06 10:32:40;;;;;;;9.97;9.67;;;21.10;82.50;;;;;;5050645;28;20451;-74
2022/04/06 10:35:22;;;;;;;10.40;10.10;;;21.70;80.80;;;;;;5050998;28;20479;-74
2022/04/06 10:37:50;;;;;;;10.60;10.30;;;22.30;79.60;;;;;;5050916;28;20452;-74
2022/04/06 10:40:17;;;;;;;10.30;10.00;;;22.30;77.30;;;;;;5050678;28;20546;-74
2022/04/06 10:42:45;;;;;;;10.10;9.80;;;22.40;77.10;;;;;;5051068;28;20452;-75
2022/04/06 10:45:36;;;;;;;9.83;9.53;;;22.50;75.50;;;;;;5051065;28;20480;-73
2022/04/06 10:48:13;;;;;;;11.10;10.73;;;24.30;73.40;;;;;;5050670;28;21149;-76
2022/04/06 10:50:41;;;;;;;10.37;10.07;;;25.60;68.50;;;;;;5050979;28;20505;-75
2022/04/06 10:53:27;;;;;;;10.83;10.43;;;26.50;63.60;;;;;;5050524;28;20817;-75
2022/04/06 10:56:03;;;;;;;11.27;10.87;;;27.50;60.00;;;;;;5050721;28;20488;-75
2022/04/06 10:58:55;;;;;;;10.90;10.60;;;27.20;59.00;;;;;;5050178;28;21003;-75
2022/04/06 11:01:29;;;;;;;10.80;10.50;;;27.40;56.50;;;;;;5050388;28;20456;-75
2022/04/06 11:03:58;;;;;;;11.10;10.70;;;27.40;55.90;;;;;;5050564;28;20451;-74
2022/04/06 11:06:48;;;;;;;11.40;11.10;;;27.10;56.00;;;;;;5050747;28;20452;-74
2022/04/06 11:12:11;;;;;;;10.70;10.40;;;26.60;56.30;;;;;;5054398;28;20932;-75
2022/04/06 11:14:38;;;;;;;11.60;11.20;;;27.00;54.60;;;;;;5054741;28;20534;-75
2022/04/06 11:17:41;;;;;;;11.37;10.90;;;27.60;54.40;;;;;;5054486;28;20444;-76
2022/04/06 11:20:10;;;;;;;11.40;11.00;;;27.70;53.20;;;;;;5054344;28;20874;-76
2022/04/06 11:22:39;;;;;;;11.20;10.80;;;26.60;54.10;;;;;;5054546;28;20494;-75
2022/04/06 11:25:08;;;;;;;10.60;10.30;;;26.40;55.60;;;;;;5054670;28;20471;-76
2022/04/06 11:27:37;;;;;;;10.90;10.50;;;27.20;53.20;;;;;;5054128;28;20447;-76
2022/04/06 11:30:05;;;;;;;11.07;10.67;;;26.70;52.90;;;;;;5054035;28;20530;-75
2022/04/06 11:32:33;;;;;;;11.07;10.70;;;26.60;54.50;;;;;;5054385;28;20440;-75
2022/04/06 11:35:03;;;;;;;11.03;10.73;;;26.90;53.20;;;;;;5053847;28;20979;-74
2022/04/06 11:37:30;;;;;;;10.87;10.57;;;26.40;51.40;;;;;;5054484;28;20859;-75
2022/04/06 11:40:00;;;;;;;10.23;9.93;;;26.50;53.30;;;;;;5054181;28;20509;-76
2022/04/06 11:42:27;;;;;;;10.20;9.90;;;26.60;52.50;;;;;;5056620;28;20455;-75
2022/04/06 11:44:55;;;;;;;10.47;10.10;;;25.30;52.90;;;;;;5063065;28;20509;-76
2022/04/06 11:47:29;;;;;;;9.97;9.67;;;24.90;54.70;;;;;;5064123;28;20833;-74
2022/04/06 11:49:55;;;;;;;10.20;9.90;;;24.50;55.30;;;;;;5074088;28;20524;-73
2022/04/06 11:52:24;;;;;;;10.10;9.80;;;24.40;55.20;;;;;;5057490;28;20443;-73
2022/04/06 11:54:52;;;;;;;10.00;9.70;;;24.00;57.00;;;;;;5053938;28;20460;-72
2022/04/06 11:57:19;;;;;;;9.70;9.40;;;24.10;57.50;;;;;;5053428;28;20583;-72
2022/04/06 11:59:53;;;;;;;10.00;9.70;;;24.30;56.90;;;;;;5051742;28;20459;-72
2022/04/06 12:02:20;;;;;;;10.70;10.30;;;25.10;56.30;;;;;;5073893;28;20478;-72
2022/04/06 12:04:48;;;;;;;10.70;10.30;;;25.40;55.40;;;;;;5073508;28;20451;-73
2022/04/06 12:07:19;;;;;;;10.53;10.23;;;24.50;56.00;;;;;;5073616;28;20449;-74
2022/04/06 12:09:47;;;;;;;10.40;10.00;;;23.20;58.10;;;;;;5073362;28;20807;-73
2022/04/06 12:12:14;;;;;;;10.40;10.00;;;21.70;60.40;;;;;;5073411;28;20542;-73
2022/04/06 12:14:42;;;;;;;9.53;9.23;;;21.40;61.50;;;;;;5073576;28;20502;-73
2022/04/06 12:17:09;;;;;;;10.60;10.20;;;20.80;63.30;;;;;;5064009;28;20578;-73
2022/04/06 12:19:35;;;;;;;10.30;9.80;;;20.70;64.50;;;;;;5052936;28;20456;-72
2022/04/06 12:22:07;;;;;;;10.90;10.50;;;21.70;64.10;;;;;;5053298;28;20453;-74
2022/04/06 12:24:38;;;;;;;10.90;10.50;;;22.90;61.50;;;;;;5053286;28;20470;-74
2022/04/06 12:27:06;;;;;;;10.70;10.40;;;23.80;58.80;;;;;;5053342;28;20532;-72
2022/04/06 12:29:35;;;;;;;10.70;10.10;;;24.00;57.50;;;;;;5052985;28;20444;-72
2022/04/06 12:32:03;;;;;;;10.27;9.97;;;24.10;55.00;;;;;;5052913;28;20958;-72
2022/04/06 12:34:31;;;;;;;9.97;9.67;;;24.30;54.90;;;;;;5052963;28;20531;-72
2022/04/06 12:36:58;;;;;;;10.43;10.13;;;23.70;54.70;;;;;;5052872;28;20511;-72
2022/04/06 12:39:25;;;;;;;10.40;10.00;;;23.60;55.10;;;;;;5053026;28;20448;-72
2022/04/06 12:41:56;;;;;;;11.80;11.20;;;23.50;55.40;;;;;;5052938;28;20448;-73
2022/04/06 12:44:24;;;;;;;10.53;10.13;;;24.00;55.50;;;;;;5052997;28;20483;-73
2022/04/06 12:46:52;;;;;;;10.00;9.70;;;24.40;54.80;;;;;;5052848;28;20468;-73
2022/04/06 12:49:32;;;;;;;10.00;9.40;;;23.90;54.20;;;;;;5052814;28;20505;-72
2022/04/06 12:52:07;;;;;;;10.13;9.77;;;23.90;54.60;;;;;;5067932;28;20912;-72
2022/04/06 12:54:35;;;;;;;10.30;9.90;;;23.70;54.20;;;;;;5072720;28;20443;-72
2022/04/06 12:57:06;;;;;;;10.97;10.60;;;23.80;53.90;;;;;;5072255;28;20483;-72
2022/04/06 12:59:39;;;;;;;9.73;9.43;;;23.90;54.30;;;;;;5058903;28;20452;-72
2022/04/06 13:02:06;;;;;;;10.03;9.73;;;23.70;54.20;;;;;;5052516;28;20452;-74
2022/04/06 13:04:37;;;;;;;9.63;9.33;;;23.90;54.50;;;;;;5049168;28;20467;-75
2022/04/06 13:07:04;;;;;;;10.20;9.87;;;24.00;54.40;;;;;;5032002;28;20544;-75
2022/04/06 13:09:31;;;;;;;10.20;9.90;;;23.40;54.60;;;;;;5032694;28;20448;-73
2022/04/06 13:15:17;;;;;;;11.50;11.00;;;23.60;55.00;;;;;;5018898;28;20475;-75
2022/04/06 13:17:45;;;;;;;10.50;10.20;;;23.80;55.30;;;;;;5031261;28;20473;-74
2022/04/06 13:20:13;;;;;;;10.60;10.30;;;23.80;54.40;;;;;;5032102;28;20547;-74
2022/04/06 13:22:41;;;;;;;10.77;10.47;;;23.20;55.70;;;;;;5032080;28;20449;-76
2022/04/06 13:25:10;;;;;;;9.40;9.10;;;23.20;56.10;;;;;;5032039;28;20456;-76
2022/04/06 13:27:37;;;;;;;11.07;10.67;;;22.90;55.80;;;;;;5031356;28;20460;-75
2022/04/06 13:30:04;;;;;;;10.43;10.03;;;22.50;56.70;;;;;;5032269;28;20514;-74
2022/04/06 13:32:32;;;;;;;9.70;9.40;;;22.20;57.20;;;;;;5031105;28;20535;-76
2022/04/06 13:35:00;;;;;;;10.30;9.90;;;21.60;57.80;;;;;;5031752;28;20449;-75
2022/04/06 13:37:27;;;;;;;10.50;10.10;;;20.80;58.60;;;;;;5031845;28;20852;-74
2022/04/06 13:39:54;;;;;;;10.27;9.90;;;20.60;61.00;;;;;;5032197;28;20484;-74
2022/04/06 13:42:22;;;;;;;9.37;9.07;;;20.80;61.00;;;;;;5049646;28;20459;-74
2022/04/06 13:44:49;;;;;;;9.33;9.03;;;20.60;60.20;;;;;;5051503;28;20444;-74
2022/04/06 13:47:15;;;;;;;9.67;9.37;;;20.10;61.30;;;;;;5051662;28;20942;-74
2022/04/06 13:49:43;;;;;;;10.03;9.73;;;20.30;61.90;;;;;;5051678;28;20451;-75
2022/04/06 13:52:10;;;;;;;9.80;9.40;;;20.40;60.70;;;;;;5051967;28;20459;-74
2022/04/06 13:54:37;;;;;;;10.03;9.73;;;20.10;60.80;;;;;;5051195;28;20862;-74
2022/04/06 13:57:04;;;;;;;9.80;9.50;;;20.50;60.60;;;;;;5051149;28;20889;-76
2022/04/06 13:59:31;;;;;;;10.27;9.90;;;20.50;61.40;;;;;;5038126;28;20449;-75
2022/04/06 14:01:57;;;;;;;9.50;9.20;;;20.90;62.00;;;;;;5031491;28;20515;-75
2022/04/06 14:04:24;;;;;;;10.17;9.87;;;21.70;60.40;;;;;;5031719;28;20449;-74
2022/04/06 14:06:52;;;;;;;9.90;9.60;;;21.50;59.90;;;;;;5031488;28;20441;-74
2022/04/06 14:09:19;;;;;;;9.60;9.30;;;20.60;62.00;;;;;;5031251;28;20515;-74
2022/04/06 14:11:47;;;;;;;9.00;8.70;;;20.40;61.70;;;;;;5031276;28;20551;-75
2022/04/06 14:14:14;;;;;;;9.37;9.07;;;20.00;63.60;;;;;;5035993;28;20562;-74
2022/04/06 14:16:41;;;;;;;9.20;8.90;;;20.00;63.50;;;;;;5042146;28;20675;-75
2022/04/06 14:19:09;;;;;;;9.77;9.47;;;20.00;63.80;;;;;;5050710;28;20510;-75
2022/04/06 14:21:36;;;;;;;9.63;9.13;;;20.10;64.00;;;;;;5050336;28;20448;-73
2022/04/06 14:24:06;;;;;;;9.77;9.27;;;20.20;63.40;;;;;;5050203;28;20717;-74
2022/04/06 14:26:35;;;;;;;9.43;8.97;;;20.20;63.30;;;;;;5049801;28;20483;-74
2022/04/06 14:29:02;;;;;;;9.80;9.40;;;20.10;63.90;;;;;;5050345;28;20461;-75
2022/04/06 14:31:29;;;;;;;9.40;9.10;;;19.90;64.20;;;;;;5049878;28;20459;-73
2022/04/06 14:33:56;;;;;;;9.20;8.90;;;19.90;64.50;;;;;;5050104;28;20455;-74
2022/04/06 14:36:23;;;;;;;10.00;9.70;;;19.70;64.70;;;;;;5050035;28;20490;-74
2022/04/06 14:38:50;;;;;;;9.77;9.37;;;19.40;65.90;;;;;;5050271;28;20468;-75
2022/04/06 14:41:18;;;;;;;9.60;9.30;;;19.20;66.60;;;;;;5049539;28;20470;-74
2022/04/06 14:43:44;;;;;;;10.23;9.33;;;19.20;66.90;;;;;;5049976;28;20448;-75
2022/04/06 14:46:11;;;;;;;9.07;8.77;;;19.20;66.60;;;;;;5050151;28;20448;-75
2022/04/06 14:48:38;;;;;;;9.40;9.00;;;19.30;67.10;;;;;;5049820;28;20452;-75
2022/04/06 14:51:05;;;;;;;9.40;8.90;;;19.30;67.10;;;;;;5049764;28;20454;-75
2022/04/06 14:53:32;;;;;;;9.33;9.03;;;19.40;66.70;;;;;;5049773;28;20460;-75
2022/04/06 14:55:59;;;;;;;8.40;8.10;;;19.40;67.80;;;;;;5049286;28;20866;-75
2022/04/06 14:58:27;;;;;;;9.87;9.57;;;19.20;68.10;;;;;;5048947;28;20484;-75
2022/04/06 15:00:53;;;;;;;8.60;8.30;;;19.00;69.20;;;;;;5048229;28;20452;-74
2022/04/06 15:03:20;;;;;;;8.10;7.90;;;19.10;69.60;;;;;;5050049;28;20532;-75
2022/04/06 15:05:47;;;;;;;9.17;8.87;;;19.20;69.70;;;;;;5049480;28;20448;-74
2022/04/06 15:08:14;;;;;;;8.43;8.13;;;19.20;70.30;;;;;;5049490;28;20471;-74
2022/04/06 15:10:42;;;;;;;9.00;8.70;;;19.20;70.80;;;;;;5050081;28;20570;-73
2022/04/06 15:13:09;;;;;;;8.70;8.40;;;18.90;71.70;;;;;;5050433;28;20505;-75
2022/04/06 15:15:38;;;;;;;8.57;8.27;;;18.70;72.70;;;;;;5050299;28;20459;-75
2022/04/06 15:18:05;;;;;;;9.20;8.90;;;18.90;73.70;;;;;;5050470;28;20582;-75
2022/04/06 15:20:33;;;;;;;9.47;9.07;;;19.00;72.90;;;;;;5050151;28;20447;-75
2022/04/06 15:23:00;;;;;;;8.90;8.60;;;19.10;72.80;;;;;;5049923;28;20459;-75
2022/04/06 15:25:27;;;;;;;9.47;9.07;;;19.20;73.40;;;;;;5050214;28;20933;-75
2022/04/06 15:27:53;;;;;;;9.73;9.33;;;19.20;73.30;;;;;;5050040;28;20551;-75
2022/04/06 15:30:20;;;;;;;9.20;8.90;;;19.20;73.20;;;;;;5049736;28;20456;-75
2022/04/06 15:32:49;;;;;;;9.27;8.87;;;19.20;73.90;;;;;;5050007;28;21008;-76
2022/04/06 15:38:02;;;;;;;10.20;9.80;;;19.10;74.20;;;;;;5049330;28;20855;-75
2022/04/06 15:40:29;;;;;;;9.10;8.80;;;19.00;74.30;;;;;;5049334;28;20486;-75
2022/04/06 15:42:56;;;;;;;8.90;8.60;;;18.90;74.00;;;;;;5049424;28;20456;-75
2022/04/06 15:45:23;;;;;;;9.27;8.97;;;19.00;74.80;;;;;;5049383;28;20973;-75
2022/04/06 15:47:51;;;;;;;9.80;9.40;;;18.90;74.90;;;;;;5049439;28;20824;-73
2022/04/06 15:50:19;;;;;;;9.20;8.90;;;18.70;75.50;;;;;;5050091;28;20444;-74
2022/04/06 15:52:46;;;;;;;10.17;9.67;;;18.70;76.10;;;;;;5049708;28;20455;-75
2022/04/06 15:55:16;;;;;;;9.27;8.87;;;18.40;76.70;;;;;;5050908;28;20510;-73
2022/04/06 15:57:42;;;;;;;9.23;8.93;;;18.50;77.30;;;;;;5050376;28;20487;-72
2022/04/06 16:00:10;;;;;;;9.10;8.80;;;18.40;78.10;;;;;;5032391;28;20954;-72
2022/04/06 16:02:37;;;;;;;8.70;8.40;;;18.30;79.00;;;;;;5031765;28;20452;-72
2022/04/06 16:05:06;;;;;;;8.63;8.23;;;18.30;79.00;;;;;;5032972;28;20506;-72
2022/04/06 16:07:33;;;;;;;9.10;8.80;;;18.10;80.00;;;;;;5033281;28;20514;-73
2022/04/06 16:09:59;;;;;;;9.33;8.83;;;18.10;80.60;;;;;;5033158;28;20551;-72
2022/04/06 16:12:26;;;;;;;9.17;8.87;;;18.20;80.90;;;;;;5033229;28;20510;-72
2022/04/06 16:14:53;;;;;;;9.40;9.00;;;18.00;81.50;;;;;;5032908;28;20495;-73
2022/04/06 16:17:19;;;;;;;8.90;8.60;;;17.90;81.90;;;;;;5032714;28;20489;-73
2022/04/06 16:19:49;;;;;;;8.90;8.60;;;17.90;81.80;;;;;;5032731;28;20449;-72
2022/04/06 16:22:17;;;;;;;9.17;8.77;;;17.60;82.80;;;;;;5032890;28;20452;-72
2022/04/06 16:24:44;;;;;;;8.97;8.67;;;17.70;83.30;;;;;;5032840;28;20448;-72
2022/04/06 16:27:10;;;;;;;10.20;9.80;;;17.60;83.70;;;;;;5032847;28;20441;-73
2022/04/06 16:29:37;;;;;;;9.00;8.70;;;17.60;83.60;;;;;;5032957;28;20506;-73
2022/04/06 16:32:07;;;;;;;9.57;9.27;;;17.70;83.70;;;;;;5032640;28;20460;-73
2022/04/06 16:34:34;;;;;;;8.83;8.53;;;17.70;84.10;;;;;;5032716;28;20457;-73
2022/04/06 16:37:01;;;;;;;9.10;8.80;;;17.60;84.70;;;;;;5031727;28;20542;-73
2022/04/06 16:39:29;;;;;;;8.67;8.37;;;17.70;85.00;;;;;;5032081;28;20998;-73
2022/04/06 16:41:56;;;;;;;9.27;8.87;;;17.60;84.70;;;;;;5032569;28;20453;-73
2022/04/06 16:44:25;;;;;;;10.00;9.43;;;17.50;85.20;;;;;;5032522;28;20483;-73
2022/04/06 16:46:52;;;;;;;9.03;8.73;;;17.30;86.20;;;;;;5032410;28;20548;-73
2022/04/06 16:49:19;;;;;;;8.80;8.40;;;17.20;86.70;;;;;;5032323;28;20511;-73
2022/04/06 16:54:32;;;;;;;9.90;9.20;;;17.00;87.60;;;;;;5032055;28;20452;-74
2022/04/06 16:56:59;;;;;;;9.53;9.13;;;16.90;88.40;;;;;;5031013;28;20489;-72
2022/04/06 16:59:26;;;;;;;10.07;9.67;;;16.80;89.10;;;;;;5032135;28;20559;-72
2022/04/06 17:01:53;;;;;;;9.30;9.00;;;16.80;89.30;;;;;;5031562;28;20911;-72
2022/04/06 17:04:19;;;;;;;9.00;8.60;;;16.70;89.70;;;;;;5031291;28;20510;-73
2022/04/06 17:06:46;;;;;;;9.23;8.93;;;16.60;90.20;;;;;;5030459;28;20507;-73
2022/04/06 17:09:13;;;;;;;8.93;8.63;;;16.50;90.80;;;;;;5031669;28;20453;-72
2022/04/06 17:11:41;;;;;;;9.20;8.90;;;16.50;91.20;;;;;;5031355;28;20947;-73
2022/04/06 17:14:08;;;;;;;9.23;8.70;;;16.40;91.50;;;;;;5031512;28;20455;-73
2022/04/06 17:16:36;;;;;;;9.20;8.90;;;16.40;91.90;;;;;;5031167;28;20488;-73
2022/04/06 17:19:04;;;;;;;8.40;8.10;;;16.40;92.60;;;;;;5031364;28;20485;-72
2022/04/06 17:21:30;;;;;;;9.00;8.70;;;16.40;92.90;;;;;;5031256;28;20488;-73
2022/04/06 17:23:58;;;;;;;9.00;8.70;;;16.40;93.20;;;;;;5031619;28;20449;-73
2022/04/06 17:26:27;;;;;;;9.70;9.30;;;16.30;93.70;;;;;;5031374;28;20551;-73
2022/04/06 17:28:55;;;;;;;9.87;9.10;;;16.30;93.90;;;;;;5031779;28;20849;-73
2022/04/06 17:31:23;;;;;;;8.27;7.97;;;16.30;94.10;;;;;;5031577;28;20528;-73
2022/04/06 17:33:49;;;;;;;8.83;8.37;;;16.20;93.90;;;;;;5031239;28;20464;-73
2022/04/06 17:36:16;;;;;;;8.83;8.53;;;16.10;93.90;;;;;;5031216;28;20452;-73
2022/04/06 17:38:44;;;;;;;8.47;8.17;;;16.00;94.20;;;;;;5030847;28;20496;-73
2022/04/06 17:41:11;;;;;;;8.60;8.30;;;15.90;94.50;;;;;;5031272;28;20484;-74
2022/04/06 17:43:39;;;;;;;8.20;7.90;;;15.70;94.20;;;;;;5031163;28;20818;-73
2022/04/06 17:46:07;;;;;;;8.37;7.97;;;15.60;94.70;;;;;;5030795;28;20452;-72
2022/04/06 17:48:34;;;;;;;8.43;8.13;;;15.50;95.00;;;;;;5030780;28;20853;-72
2022/04/06 17:51:00;;;;;;;8.80;8.50;;;15.30;95.10;;;;;;5030991;28;20507;-72
2022/04/06 17:53:27;;;;;;;8.67;8.37;;;15.30;95.50;;;;;;5030749;28;20448;-74
2022/04/06 17:55:54;;;;;;;8.83;8.43;;;15.20;95.80;;;;;;5031012;28;20472;-72
2022/04/06 17:58:21;;;;;;;9.03;8.27;;;15.20;96.20;;;;;;5030430;28;20493;-72
2022/04/06 18:00:47;;;;;;;7.77;7.47;;;15.10;96.60;;;;;;5030966;28;20472;-73
2022/04/06 18:03:16;;;;;;;8.23;7.93;;;15.00;96.80;;;;;;5030823;28;20801;-72
2022/04/06 18:05:44;;;;;;;8.00;7.70;;;15.00;97.20;;;;;;5030725;28;20457;-73
2022/04/06 18:08:12;;;;;;;8.33;7.93;;;14.90;97.60;;;;;;5030887;28;20495;-73
2022/04/06 18:16:06;;;;;;;9.03;8.63;;;14.70;98.40;;;;;;5019961;28;21250;-72
2022/04/06 18:18:34;;;;;;;8.50;8.20;;;14.60;98.80;;;;;;5029915;28;20485;-72
2022/04/06 18:21:03;;;;;;;8.20;7.90;;;14.50;99.10;;;;;;5030307;28;20951;-74
2022/04/06 18:23:30;;;;;;;8.00;7.63;;;14.50;99.30;;;;;;5029754;28;20548;-72
2022/04/06 18:25:57;;;;;;;8.97;8.27;;;14.50;99.40;;;;;;5030429;28;20935;-73
2022/04/06 18:28:24;;;;;;;8.90;8.40;;;14.40;99.50;;;;;;5030186;28;20460;-72
2022/04/06 18:30:50;;;;;;;7.97;7.67;;;14.30;99.80;;;;;;5030385;28;20460;-72
2022/04/06 18:33:17;;;;;;;7.93;7.63;;;14.30;99.90;;;;;;5030085;28;20938;-72
2022/04/06 18:35:46;;;;;;;9.30;8.63;;;14.30;99.90;;;;;;5030321;28;20515;-73
2022/04/06 18:38:13;;;;;;;8.43;7.90;;;14.20;99.90;;;;;;5030451;28;20485;-73
2022/04/06 18:40:40;;;;;;;8.20;7.80;;;14.20;99.90;;;;;;5030352;28;20544;-73
2022/04/06 18:43:06;;;;;;;8.00;7.60;;;14.10;99.90;;;;;;5030119;28;20947;-73
2022/04/06 18:45:33;;;;;;;7.60;7.23;;;14.10;99.90;;;;;;5028543;28;20444;-73
2022/04/06 18:48:00;;;;;;;7.73;7.33;;;14.00;99.90;;;;;;5029208;28;20461;-72
2022/04/06 18:50:26;;;;;;;7.40;7.00;;;14.00;99.90;;;;;;5029963;28;20484;-72
2022/04/06 18:52:55;;;;;;;7.50;7.20;;;13.90;99.90;;;;;;5030097;28;20935;-73
2022/04/06 18:55:21;;;;;;;7.77;7.47;;;13.90;99.90;;;;;;5029380;28;20452;-72
2022/04/06 18:57:48;;;;;;;7.30;6.90;;;13.80;99.90;;;;;;5029682;28;20562;-72
2022/04/06 19:00:17;;;;;;;7.53;7.23;;;13.70;99.90;;;;;;5029905;28;20457;-73
2022/04/06 19:02:44;;;;;;;7.80;7.50;;;13.60;99.90;;;;;;5029970;28;20449;-73
2022/04/06 19:05:11;;;;;;;8.33;8.00;;;13.60;99.90;;;;;;5030101;28;20867;-73
2022/04/06 19:07:38;;;;;;;8.47;7.90;;;13.50;99.90;;;;;;5030074;28;20445;-73
2022/04/06 19:10:07;;;;;;;8.20;7.80;;;13.40;99.90;;;;;;5030088;28;20453;-72
2022/04/06 19:12:37;;;;;;;8.10;7.80;;;13.40;99.90;;;;;;5030153;28;20452;-73
2022/04/06 19:15:04;;;;;;;7.77;7.47;;;13.30;99.90;;;;;;5030204;28;20467;-73
2022/04/06 19:17:31;;;;;;;7.77;7.37;;;13.20;99.90;;;;;;5029720;28;20488;-73
2022/04/06 19:19:58;;;;;;;7.73;7.43;;;13.20;99.90;;;;;;5030114;28;20448;-72
2022/04/06 19:22:25;;;;;;;7.30;7.00;;;13.20;99.90;;;;;;5030089;28;20473;-72
2022/04/06 19:24:53;;;;;;;7.70;7.30;;;13.20;99.90;;;;;;5030038;28;20494;-72
2022/04/06 19:27:22;;;;;;;7.40;7.03;;;13.10;99.90;;;;;;5029892;28;20496;-75
2022/04/06 19:29:50;;;;;;;8.10;7.80;;;13.10;99.90;;;;;;5030800;28;20782;-74
2022/04/06 19:32:17;;;;;;;8.03;7.73;;;13.10;99.90;;;;;;5033986;28;20476;-73
2022/04/06 19:34:43;;;;;;;8.30;7.90;;;13.10;99.90;;;;;;5033914;28;20444;-73
2022/04/06 19:37:11;;;;;;;7.90;7.53;;;13.10;99.90;;;;;;5034116;28;20461;-72
2022/04/06 19:39:38;;;;;;;8.57;8.20;;;13.10;99.90;;;;;;5033730;28;20862;-72
2022/04/06 19:42:06;;;;;;;7.80;7.33;;;13.10;99.90;;;;;;5033718;28;20453;-72
2022/04/06 19:44:35;;;;;;;8.43;8.13;;;13.10;99.90;;;;;;5033545;28;20765;-72
2022/04/06 19:47:03;;;;;;;8.70;8.20;;;13.20;99.90;;;;;;5033635;28;20459;-74
2022/04/06 19:49:33;;;;;;;7.40;7.10;;;13.20;99.90;;;;;;5033454;28;20472;-72
2022/04/06 19:52:01;;;;;;;8.10;7.80;;;13.20;99.90;;;;;;5033593;28;20502;-72
2022/04/06 19:54:28;;;;;;;8.50;8.10;;;13.20;99.90;;;;;;5033383;28;21018;-72
2022/04/06 19:56:54;;;;;;;8.50;8.10;;;13.10;99.90;;;;;;5033371;28;20990;-72
2022/04/06 19:59:21;;;;;;;8.13;7.70;;;13.10;99.90;;;;;;5033203;28;20542;-72
2022/04/06 20:01:49;;;;;;;8.23;7.80;;;13.10;99.90;;;;;;5033270;28;20819;-73
2022/04/06 20:04:16;;;;;;;9.00;8.50;;;13.10;99.90;;;;;;5033349;28;20472;-72
2022/04/06 20:06:43;;;;;;;8.07;7.77;;;13.10;99.90;;;;;;5033060;28;20456;-72
2022/04/06 20:09:10;;;;;;;8.60;8.20;;;13.10;99.90;;;;;;5033299;28;20966;-73
2022/04/06 20:11:36;;;;;;;8.57;8.07;;;13.10;99.90;;;;;;5033002;28;20461;-72
2022/04/06 20:14:03;;;;;;;8.20;7.90;;;13.10;99.90;;;;;;5033495;28;20452;-73
2022/04/06 20:16:30;;;;;;;8.10;7.80;;;13.00;99.90;;;;;;5032917;28;20483;-73
2022/04/06 20:18:58;;;;;;;7.63;7.27;;;12.80;99.90;;;;;;5033159;28;20543;-72
2022/04/06 20:21:25;;;;;;;8.20;7.80;;;12.90;99.90;;;;;;5033231;28;20457;-72
2022/04/06 20:23:52;;;;;;;7.93;7.63;;;12.80;99.90;;;;;;5032931;28;20452;-73
2022/04/06 20:26:19;;;;;;;8.20;7.70;;;12.80;99.90;;;;;;5032969;28;20506;-72
2022/04/06 20:28:46;;;;;;;7.57;7.27;;;12.80;99.90;;;;;;5033012;28;20507;-72